Time;durP1;ratioP1;P1;durP2;ratioP2;P2;SDS_P1;SDS_P2;PMS_P1;PMS_P2;Temp;Humidity;BMP_temperature;BMP_pressure;BME280_temperature;BME280_humidity;BME280_pressure;Samples;Min_cycle;Max_cycle;Signal;HPM_P1;HPM_P2
2023/06/20 00:01:54;;;;;;;14.10;12.47;;;15.80;1.00;;;;;;8263206;28;20230;-67
2023/06/20 00:05:55;;;;;;;13.37;12.17;;;15.70;73.20;;;;;;8264185;28;20211;-65
2023/06/20 00:09:56;;;;;;;12.80;11.60;;;15.70;74.00;;;;;;8264550;28;20229;-66
2023/06/20 00:14:00;;;;;;;13.73;12.43;;;15.60;94.20;;;;;;8265113;28;20215;-66
2023/06/20 00:18:01;;;;;;;14.33;12.93;;;15.60;99.90;;;;;;8267086;28;20195;-67
2023/06/20 00:22:02;;;;;;;13.47;12.27;;;15.60;99.90;;;;;;8265688;28;20281;-66
2023/06/20 00:26:03;;;;;;;13.37;12.03;;;15.50;99.90;;;;;;8264755;28;20187;-66
2023/06/20 00:30:05;;;;;;;13.63;12.33;;;15.50;99.90;;;;;;8269847;28;20272;-65
2023/06/20 00:34:06;;;;;;;13.73;12.43;;;15.50;99.90;;;;;;8273004;28;20215;-66
2023/06/20 00:38:07;;;;;;;15.27;13.87;;;15.50;99.90;;;;;;8265307;28;20195;-66
2023/06/20 00:42:25;;;;;;;13.50;12.20;;;15.50;99.90;;;;;;8266104;28;20188;-66
2023/06/20 00:46:26;;;;;;;13.50;12.20;;;15.50;99.90;;;;;;8267764;28;20198;-66
2023/06/20 00:50:28;;;;;;;14.47;12.87;;;15.50;99.90;;;;;;8266345;28;20216;-65
2023/06/20 00:54:36;;;;;;;13.77;12.37;;;15.60;99.90;;;;;;8263713;28;20224;-67
2023/06/20 00:58:37;;;;;;;15.17;13.67;;;15.60;99.90;;;;;;8263945;28;20192;-66
2023/06/20 01:02:46;;;;;;;15.07;13.53;;;15.60;99.90;;;;;;8265821;28;20218;-65
2023/06/20 01:06:59;;;;;;;15.40;14.00;;;15.80;99.90;;;;;;8264608;28;20195;-66
2023/06/20 01:11:02;;;;;;;15.63;14.13;;;15.80;99.90;;;;;;8264071;28;20190;-68
2023/06/20 01:15:47;;;;;;;15.00;13.53;;;15.90;99.90;;;;;;8277859;28;20223;-67
2023/06/20 01:20:12;;;;;;;14.90;13.50;;;16.00;99.90;;;;;;8264147;28;20204;-67
2023/06/20 01:24:36;;;;;;;14.40;13.00;;;16.10;99.90;;;;;;8261715;28;20194;-65
2023/06/20 01:29:01;;;;;;;16.37;14.77;;;16.00;99.90;;;;;;8267884;28;20202;-67
2023/06/20 01:33:04;;;;;;;16.50;14.90;;;16.00;99.90;;;;;;8264448;28;20196;-71
2023/06/20 01:37:13;;;;;;;16.13;14.53;;;16.00;99.90;;;;;;8277542;28;20212;-68
2023/06/20 01:41:18;;;;;;;17.33;15.63;;;16.10;99.90;;;;;;8268844;28;20191;-66
2023/06/20 01:45:21;;;;;;;15.97;14.47;;;16.10;99.90;;;;;;8262621;28;20210;-67
2023/06/20 01:49:26;;;;;;;15.60;14.00;;;16.10;99.90;;;;;;8265093;28;20219;-66
2023/06/20 01:53:29;;;;;;;15.77;14.20;;;16.00;99.90;;;;;;8280137;28;20191;-70
2023/06/20 01:57:31;;;;;;;14.80;13.23;;;15.90;99.90;;;;;;8270630;28;20260;-65
2023/06/20 02:01:33;;;;;;;14.57;13.20;;;15.80;99.90;;;;;;8263545;28;20193;-65
2023/06/20 02:05:34;;;;;;;14.97;13.47;;;15.80;99.90;;;;;;8268540;28;20230;-66
2023/06/20 02:09:38;;;;;;;14.90;13.50;;;15.80;99.90;;;;;;8269117;28;20197;-66
2023/06/20 02:13:39;;;;;;;17.37;15.67;;;15.80;99.90;;;;;;8275255;28;20252;-64
2023/06/20 02:17:41;;;;;;;17.33;15.73;;;15.70;99.90;;;;;;8267775;28;20190;-66
2023/06/20 02:21:45;;;;;;;16.30;14.60;;;15.60;99.90;;;;;;8272804;28;20211;-65
2023/06/20 02:25:47;;;;;;;16.27;14.67;;;15.50;99.90;;;;;;8271703;28;20244;-66
2023/06/20 02:29:50;;;;;;;16.03;14.60;;;15.40;99.90;;;;;;8267005;28;20206;-65
2023/06/20 02:33:54;;;;;;;14.57;13.17;;;15.30;99.90;;;;;;8269943;28;20246;-66
2023/06/20 02:37:58;;;;;;;16.07;14.57;;;15.30;99.90;;;;;;8267323;28;20188;-65
2023/06/20 02:41:59;;;;;;;16.93;15.27;;;15.30;99.90;;;;;;8271869;28;20188;-66
2023/06/20 02:46:10;;;;;;;17.03;15.37;;;15.30;99.90;;;;;;8268885;28;20195;-65
2023/06/20 02:51:01;;;;;;;18.27;16.40;;;15.30;99.90;;;;;;8274829;28;20192;-65
2023/06/20 02:55:24;;;;;;;19.30;16.67;;;15.30;99.90;;;;;;8266438;28;20230;-66
2023/06/20 02:59:32;;;;;;;17.23;15.60;;;15.50;99.90;;;;;;8271858;28;20187;-68
2023/06/20 03:03:41;;;;;;;16.50;14.80;;;15.60;99.90;;;;;;8273455;28;20301;-66
2023/06/20 03:07:43;;;;;;;18.03;16.13;;;15.70;99.90;;;;;;8273902;28;20196;-68
2023/06/20 03:11:44;;;;;;;19.00;15.67;;;15.80;99.90;;;;;;8267247;28;20198;-66
2023/06/20 03:15:44;;;;;;;16.30;14.63;;;16.10;99.90;;;;;;8267297;28;20218;-68
2023/06/20 03:19:45;;;;;;;14.70;13.40;;;16.40;99.90;;;;;;8266903;28;20283;-66
2023/06/20 03:23:46;;;;;;;13.90;12.60;;;16.80;99.90;;;;;;8270986;28;20210;-66
2023/06/20 03:27:47;;;;;;;14.50;13.10;;;17.20;99.90;;;;;;8269238;28;20199;-66
2023/06/20 03:31:48;;;;;;;13.57;12.23;;;17.70;99.90;;;;;;8268591;28;20254;-65
2023/06/20 03:35:50;;;;;;;13.70;12.40;;;18.00;1.00;;;;;;8268695;28;20214;-66
2023/06/20 03:39:51;;;;;;;12.97;11.77;;;18.20;99.90;;;;;;8264925;28;20218;-67
2023/06/20 03:43:52;;;;;;;12.43;11.17;;;18.40;99.90;;;;;;8267908;28;20191;-66
2023/06/20 03:47:53;;;;;;;14.83;13.03;;;18.80;99.90;;;;;;8264950;28;20195;-67
2023/06/20 03:51:54;;;;;;;14.50;13.07;;;18.90;1.00;;;;;;8267513;28;20198;-67
2023/06/20 03:55:58;;;;;;;12.83;11.63;;;18.80;99.90;;;;;;8267661;28;20208;-66
2023/06/20 03:59:59;;;;;;;12.80;11.60;;;18.70;99.90;;;;;;8269434;28;20183;-66
2023/06/20 04:04:02;;;;;;;12.10;10.90;;;18.60;99.90;;;;;;8274955;28;20203;-67
2023/06/20 04:08:03;;;;;;;11.80;10.60;;;18.60;99.90;;;;;;8273607;28;20202;-67
2023/06/20 04:12:05;;;;;;;12.63;11.47;;;18.60;99.90;;;;;;8265291;28;20194;-69
2023/06/20 04:16:06;;;;;;;19.63;14.17;;;18.80;99.90;;;;;;8267762;28;20207;-67
2023/06/20 04:20:12;;;;;;;16.30;14.17;;;18.90;99.90;;;;;;8279780;28;20188;-67
2023/06/20 04:24:13;;;;;;;16.13;14.37;;;19.00;99.90;;;;;;8266569;28;20544;-68
2023/06/20 04:28:17;;;;;;;14.30;12.40;;;19.20;99.90;;;;;;8273331;28;20202;-67
2023/06/20 04:32:18;;;;;;;13.93;11.40;;;19.50;99.90;;;;;;8263876;28;20192;-68
2023/06/20 04:36:19;;;;;;;13.77;12.27;;;20.10;99.90;;;;;;8267583;28;20222;-68
2023/06/20 04:40:20;;;;;;;13.17;11.77;;;20.10;24.60;;;;;;8279712;28;20282;-67
2023/06/20 04:44:23;;;;;;;15.33;11.40;;;20.00;66.70;;;;;;8272474;28;20214;-67
2023/06/20 04:48:35;;;;;;;12.20;10.87;;;20.10;49.20;;;;;;8281562;28;20253;-67
2023/06/20 04:52:52;;;;;;;11.77;10.60;;;20.50;1.00;;;;;;8265825;28;20203;-67
2023/06/20 04:56:53;;;;;;;11.23;10.13;;;21.40;1.00;;;;;;8263882;28;20517;-67
2023/06/20 05:00:56;;;;;;;10.87;9.77;;;22.40;99.90;;;;;;8266497;28;20187;-67
2023/06/20 05:04:57;;;;;;;11.20;9.63;;;23.00;99.90;;;;;;8265718;28;20302;-67
2023/06/20 05:08:59;;;;;;;10.87;9.77;;;23.80;99.90;;;;;;8264462;28;20195;-67
2023/06/20 05:13:00;;;;;;;12.27;8.90;;;24.40;99.90;;;;;;8263664;28;20233;-68
2023/06/20 05:17:01;;;;;;;9.77;8.83;;;24.40;99.90;;;;;;8266542;28;20219;-68
2023/06/20 05:21:02;;;;;;;9.67;8.77;;;24.20;99.90;;;;;;8268430;28;20277;-67
2023/06/20 05:25:03;;;;;;;9.13;8.23;;;24.00;99.90;;;;;;8262572;28;20198;-67
2023/06/20 05:29:05;;;;;;;9.63;8.63;;;23.80;99.90;;;;;;8265757;28;20309;-67
2023/06/20 05:33:07;;;;;;;10.83;8.93;;;23.70;99.90;;;;;;8266374;28;20192;-67
2023/06/20 05:37:08;;;;;;;9.60;8.60;;;23.70;99.90;;;;;;8265333;28;20230;-67
2023/06/20 05:41:14;;;;;;;9.77;8.57;;;23.80;99.90;;;;;;8251896;28;20201;-67
2023/06/20 05:45:15;;;;;;;12.03;10.33;;;23.80;99.90;;;;;;8252358;28;20262;-68
2023/06/20 05:49:16;;;;;;;10.30;8.37;;;23.80;99.90;;;;;;8264684;28;20194;-68
2023/06/20 05:53:18;;;;;;;14.03;9.90;;;23.80;99.90;;;;;;8264811;28;20210;-67
2023/06/20 05:57:24;;;;;;;11.03;9.77;;;23.90;99.90;;;;;;8261938;28;20225;-67
2023/06/20 06:01:25;;;;;;;12.70;9.90;;;24.10;99.90;;;;;;8262051;28;20271;-66
2023/06/20 06:05:27;;;;;;;12.10;10.37;;;24.40;99.90;;;;;;8263476;28;20227;-66
2023/06/20 06:09:28;;;;;;;14.13;11.90;;;24.60;88.40;;;;;;8266970;28;20202;-64
2023/06/20 06:13:32;;;;;;;13.30;10.47;;;24.80;68.50;;;;;;8264843;28;20198;-67
2023/06/20 06:17:33;;;;;;;11.07;9.87;;;25.00;41.20;;;;;;8245117;28;20225;-68
2023/06/20 06:21:33;;;;;;;16.00;11.60;;;25.30;18.70;;;;;;8270240;28;20196;-68
2023/06/20 06:25:34;;;;;;;17.67;13.45;;;25.50;15.50;;;;;;8265718;28;20277;-66
2023/06/20 06:29:39;;;;;;;21.85;15.25;;;25.80;5.70;;;;;;8264506;28;20203;-67
2023/06/20 06:33:46;;;;;;;35.78;17.88;;;26.00;1.00;;;;;;8274565;28;20194;-66
2023/06/20 06:37:47;;;;;;;28.77;18.50;;;26.20;1.00;;;;;;8265169;28;20192;-68
2023/06/20 06:41:49;;;;;;;24.83;16.33;;;26.40;1.00;;;;;;8267139;28;20271;-68
2023/06/20 06:45:51;;;;;;;21.00;15.57;;;26.70;1.00;;;;;;8247870;28;20202;-68
2023/06/20 06:49:52;;;;;;;17.95;12.80;;;26.80;1.00;;;;;;8263677;28;20196;-66
2023/06/20 06:53:53;;;;;;;13.63;10.88;;;27.00;1.00;;;;;;8280622;28;20255;-67
2023/06/20 06:57:54;;;;;;;10.45;9.45;;;27.30;1.00;;;;;;8269744;28;20183;-67
2023/06/20 07:01:55;;;;;;;11.40;9.32;;;27.60;1.00;;;;;;8275449;28;20187;-69
2023/06/20 07:05:56;;;;;;;13.05;9.18;;;27.90;1.00;;;;;;8266430;28;20207;-67
2023/06/20 07:09:57;;;;;;;11.63;9.68;;;28.20;1.00;;;;;;8293605;28;20191;-67
2023/06/20 07:13:58;;;;;;;12.32;10.35;;;28.40;1.00;;;;;;8271774;28;20188;-69
2023/06/20 07:17:59;;;;;;;12.75;9.93;;;28.60;1.00;;;;;;8267335;28;20195;-68
2023/06/20 07:22:02;;;;;;;13.15;10.00;;;29.00;1.00;;;;;;8270234;28;20203;-68
2023/06/20 07:26:04;;;;;;;14.65;11.10;;;29.50;1.00;;;;;;8271042;28;20214;-67
2023/06/20 07:30:05;;;;;;;18.65;12.30;;;29.80;1.00;;;;;;8271728;28;20192;-67
2023/06/20 07:34:06;;;;;;;22.45;16.42;;;30.20;1.00;;;;;;8269924;28;20225;-68
2023/06/20 07:38:07;;;;;;;29.60;18.17;;;30.50;1.00;;;;;;8270987;28;20195;-69
2023/06/20 07:42:09;;;;;;;35.42;22.65;;;31.00;1.00;;;;;;8267688;28;20218;-67
2023/06/20 07:46:10;;;;;;;24.05;16.85;;;31.40;1.00;;;;;;8273119;28;20222;-70
2023/06/20 07:50:11;;;;;;;17.10;13.52;;;31.70;1.00;;;;;;8267499;28;20276;-69
2023/06/20 07:54:15;;;;;;;20.40;13.75;;;32.00;1.00;;;;;;8268379;28;20210;-69
2023/06/20 07:58:19;;;;;;;15.35;11.40;;;32.00;1.00;;;;;;8270253;28;20344;-67
2023/06/20 08:02:23;;;;;;;15.70;10.30;;;31.90;1.00;;;;;;8269382;28;20199;-69
2023/06/20 08:06:24;;;;;;;10.75;8.65;;;32.00;1.00;;;;;;8263875;28;20210;-67
2023/06/20 08:10:25;;;;;;;8.57;7.40;;;32.20;1.00;;;;;;8268219;28;20329;-67
2023/06/20 08:14:26;;;;;;;9.13;6.88;;;32.30;1.00;;;;;;8280802;28;20203;-69
2023/06/20 08:18:27;;;;;;;9.30;7.75;;;32.40;1.00;;;;;;8268463;28;20186;-67
2023/06/20 08:22:28;;;;;;;13.07;8.30;;;32.40;1.00;;;;;;8269515;28;20179;-67
2023/06/20 08:26:29;;;;;;;12.05;9.48;;;32.40;1.00;;;;;;8268066;28;20190;-68
2023/06/20 08:30:30;;;;;;;15.20;10.52;;;32.50;1.00;;;;;;8271807;28;20223;-70
2023/06/20 08:34:31;;;;;;;14.88;11.05;;;32.50;1.00;;;;;;8273111;28;20223;-69
2023/06/20 08:38:32;;;;;;;12.38;9.88;;;32.40;1.00;;;;;;8266746;28;20184;-69
2023/06/20 08:42:36;;;;;;;13.95;10.75;;;32.40;1.00;;;;;;8267398;28;20184;-68
2023/06/20 08:46:37;;;;;;;12.07;9.77;;;32.50;1.00;;;;;;8265203;28;20258;-69
2023/06/20 08:50:38;;;;;;;12.38;9.95;;;32.60;1.00;;;;;;8270084;28;20274;-70
2023/06/20 08:54:43;;;;;;;12.98;10.65;;;32.60;1.00;;;;;;8266437;28;20223;-69
2023/06/20 08:58:44;;;;;;;13.40;11.63;;;32.80;1.00;;;;;;8262453;28;20212;-69
2023/06/20 09:02:47;;;;;;;13.30;10.70;;;32.70;1.00;;;;;;8268952;28;20208;-68
2023/06/20 09:06:50;;;;;;;25.27;14.07;;;32.80;1.00;;;;;;8263178;28;20251;-71
2023/06/20 09:11:08;;;;;;;16.75;12.50;;;33.00;1.00;;;;;;8267229;28;20299;-66
2023/06/20 09:15:15;;;;;;;17.42;12.57;;;33.00;1.00;;;;;;8269391;28;20277;-70
2023/06/20 09:19:15;;;;;;;17.00;12.38;;;32.60;1.00;;;;;;8281911;28;20195;-68
2023/06/20 09:23:28;;;;;;;15.70;11.85;;;32.20;1.00;;;;;;8265422;28;20182;-67
2023/06/20 09:27:47;;;;;;;13.45;11.10;;;32.10;1.00;;;;;;8266083;28;20183;-69
2023/06/20 09:31:49;;;;;;;14.13;11.55;;;32.00;1.00;;;;;;8267234;28;20191;-68
2023/06/20 09:35:50;;;;;;;15.80;11.35;;;32.10;1.00;;;;;;8268585;28;20219;-68
2023/06/20 09:39:53;;;;;;;11.55;10.25;;;32.10;1.00;;;;;;8278456;28;20208;-68
2023/06/20 09:43:57;;;;;;;11.23;8.90;;;32.30;1.00;;;;;;8265224;28;20325;-69
2023/06/20 09:47:59;;;;;;;11.15;9.25;;;32.40;1.00;;;;;;8263279;28;20230;-68
2023/06/20 09:52:07;;;;;;;7.93;7.22;;;32.40;1.00;;;;;;8281633;28;20190;-69
2023/06/20 09:56:10;;;;;;;9.77;8.77;;;32.40;1.00;;;;;;8264888;28;20289;-69
2023/06/20 10:00:13;;;;;;;11.65;9.48;;;32.60;1.00;;;;;;8268114;28;20179;-67
2023/06/20 10:04:15;;;;;;;14.88;10.43;;;32.60;1.00;;;;;;8263766;28;20215;-68
2023/06/20 10:08:18;;;;;;;10.73;9.48;;;32.40;1.00;;;;;;8263626;28;20191;-68
2023/06/20 10:12:19;;;;;;;11.20;10.07;;;32.60;1.00;;;;;;8267286;28;20191;-70
2023/06/20 10:16:20;;;;;;;13.70;11.82;;;32.70;1.00;;;;;;8265553;28;20211;-66
2023/06/20 10:20:28;;;;;;;12.18;10.98;;;32.70;1.00;;;;;;8267072;28;20334;-67
2023/06/20 10:24:30;;;;;;;13.60;11.27;;;33.10;1.00;;;;;;8263201;28;20192;-67
2023/06/20 10:28:31;;;;;;;12.45;11.15;;;33.10;1.00;;;;;;8272494;28;20195;-70
2023/06/20 10:32:32;;;;;;;14.43;10.57;;;33.20;1.00;;;;;;8285734;28;20191;-68
2023/06/20 10:36:33;;;;;;;14.02;10.55;;;33.70;1.00;;;;;;8271481;28;20214;-68
2023/06/20 10:40:36;;;;;;;14.05;11.15;;;34.00;1.00;;;;;;8256099;28;20188;-70
2023/06/20 10:44:37;;;;;;;12.45;10.05;;;34.40;1.00;;;;;;8269544;28;20191;-69
2023/06/20 10:48:39;;;;;;;12.00;10.27;;;34.20;1.00;;;;;;8274188;28;20192;-71
2023/06/20 10:52:41;;;;;;;10.65;9.55;;;34.30;1.00;;;;;;8272109;28;20187;-70
2023/06/20 10:56:46;;;;;;;11.60;9.30;;;34.40;1.00;;;;;;8270841;28;20215;-70
2023/06/20 11:00:50;;;;;;;10.98;8.80;;;34.40;1.00;;;;;;8270376;28;20183;-70
2023/06/20 11:04:53;;;;;;;9.20;8.30;;;34.70;1.00;;;;;;8274051;28;20318;-68
2023/06/20 11:08:56;;;;;;;8.55;7.63;;;35.00;1.00;;;;;;8290102;28;20183;-71
2023/06/20 11:13:04;;;;;;;8.65;7.53;;;34.70;1.00;;;;;;8271114;28;20204;-69
2023/06/20 11:17:06;;;;;;;10.85;8.20;;;34.80;1.00;;;;;;8272924;28;20298;-71
2023/06/20 11:21:06;;;;;;;10.00;9.00;;;34.60;1.00;;;;;;8270062;28;20343;-70
2023/06/20 11:25:08;;;;;;;10.48;9.07;;;34.80;1.00;;;;;;8267984;28;20330;-70
2023/06/20 11:29:08;;;;;;;10.82;8.93;;;34.90;1.00;;;;;;8284091;28;20238;-71
2023/06/20 11:33:14;;;;;;;15.25;9.05;;;35.00;1.00;;;;;;8269015;28;20191;-68
2023/06/20 11:37:15;;;;;;;14.70;8.88;;;34.70;1.00;;;;;;8272385;28;20222;-68
2023/06/20 11:41:16;;;;;;;9.88;8.88;;;34.40;1.00;;;;;;8268579;28;20179;-68
2023/06/20 11:45:17;;;;;;;9.88;8.90;;;34.10;1.00;;;;;;8267803;28;20199;-70
2023/06/20 11:49:31;;;;;;;11.25;8.43;;;34.00;1.00;;;;;;8272245;28;20191;-70
2023/06/20 11:53:37;;;;;;;8.88;7.97;;;33.90;1.00;;;;;;8266492;28;20243;-68
2023/06/20 11:57:41;;;;;;;9.85;8.45;;;33.60;1.00;;;;;;8268991;28;20250;-68
2023/06/20 12:01:45;;;;;;;9.23;8.07;;;33.60;1.00;;;;;;8272340;28;20311;-72
2023/06/20 12:05:46;;;;;;;8.30;7.47;;;33.60;1.00;;;;;;8269870;28;20211;-68
2023/06/20 12:09:47;;;;;;;7.85;6.95;;;33.70;1.00;;;;;;8267965;28;20196;-70
2023/06/20 12:13:48;;;;;;;7.78;6.95;;;33.70;1.00;;;;;;8264698;28;20193;-69
2023/06/20 12:17:49;;;;;;;8.70;7.90;;;33.90;1.00;;;;;;8270051;28;20211;-69
2023/06/20 12:21:53;;;;;;;7.90;7.20;;;34.00;1.00;;;;;;8272476;28;20187;-69
2023/06/20 12:25:57;;;;;;;8.45;7.00;;;34.40;1.00;;;;;;8275249;28;20215;-69
2023/06/20 12:29:58;;;;;;;7.30;6.60;;;34.80;1.00;;;;;;8266609;28;20188;-70
2023/06/20 12:33:59;;;;;;;8.35;7.55;;;35.30;1.00;;;;;;8266049;28;20382;-69
2023/06/20 12:38:10;;;;;;;7.82;7.10;;;35.70;1.00;;;;;;8269700;28;20210;-68
2023/06/20 12:42:15;;;;;;;7.70;6.95;;;35.70;1.00;;;;;;8266169;28;20195;-68
2023/06/20 12:46:16;;;;;;;10.70;7.28;;;35.80;1.00;;;;;;8272070;28;20222;-67
2023/06/20 12:50:17;;;;;;;7.95;7.28;;;35.90;1.00;;;;;;8265930;28;20192;-69
2023/06/20 12:54:18;;;;;;;8.18;7.38;;;35.60;1.00;;;;;;8266277;28;20282;-69
2023/06/20 12:58:19;;;;;;;9.02;7.50;;;35.30;1.00;;;;;;8268321;28;20194;-70
2023/06/20 13:02:29;;;;;;;8.73;7.65;;;35.30;1.00;;;;;;8267457;28;20214;-71
2023/06/20 13:06:30;;;;;;;8.43;7.63;;;35.00;1.00;;;;;;8265535;28;20187;-66
2023/06/20 13:10:35;;;;;;;9.63;8.02;;;34.90;1.00;;;;;;8265420;28;20187;-71
2023/06/20 13:14:36;;;;;;;8.38;7.53;;;34.80;1.00;;;;;;8269019;28;20211;-70
2023/06/20 13:18:40;;;;;;;8.32;7.13;;;34.50;1.00;;;;;;8268497;28;20215;-70
2023/06/20 13:22:41;;;;;;;8.77;6.97;;;34.20;1.00;;;;;;8265914;28;20290;-70
2023/06/20 13:26:42;;;;;;;8.45;7.60;;;33.90;1.00;;;;;;8268537;28;20188;-70
2023/06/20 13:30:43;;;;;;;7.70;7.07;;;34.00;1.00;;;;;;8264911;28;20194;-70
2023/06/20 13:34:44;;;;;;;9.43;8.52;;;34.40;1.00;;;;;;8265835;28;20269;-69
2023/06/20 13:38:45;;;;;;;12.32;8.18;;;34.20;1.00;;;;;;8261707;28;20443;-71
2023/06/20 13:42:48;;;;;;;9.63;8.23;;;33.20;1.00;;;;;;8265472;28;20184;-70
2023/06/20 13:46:49;;;;;;;9.80;8.10;;;32.40;1.00;;;;;;8265751;28;20306;-69
2023/06/20 13:50:50;;;;;;;8.88;8.07;;;31.60;1.00;;;;;;8261274;28;20192;-70
2023/06/20 13:54:51;;;;;;;8.55;7.70;;;31.10;1.00;;;;;;8265196;28;20214;-69
2023/06/20 13:58:52;;;;;;;8.35;7.55;;;30.70;1.00;;;;;;8263110;28;20191;-69
2023/06/20 14:02:53;;;;;;;10.00;8.32;;;30.40;1.00;;;;;;8271900;28;20229;-69
2023/06/20 14:06:54;;;;;;;8.40;7.70;;;30.10;1.00;;;;;;8285223;28;20192;-67
2023/06/20 14:10:55;;;;;;;11.20;9.15;;;29.90;1.00;;;;;;8274200;28;20190;-69
2023/06/20 14:14:58;;;;;;;11.18;10.07;;;29.80;1.00;;;;;;8273868;28;20249;-69
2023/06/20 14:18:59;;;;;;;9.18;8.32;;;30.00;1.00;;;;;;8268413;28;20191;-70
2023/06/20 14:23:00;;;;;;;9.85;8.95;;;30.00;1.00;;;;;;8270946;28;20293;-67
2023/06/20 14:27:00;;;;;;;12.00;9.77;;;29.90;1.00;;;;;;8273219;28;20187;-67
2023/06/20 14:31:01;;;;;;;11.32;9.65;;;29.60;1.00;;;;;;8275238;28;20274;-66
2023/06/20 14:35:02;;;;;;;10.88;9.48;;;29.50;1.00;;;;;;8274209;28;20216;-66
2023/06/20 14:39:04;;;;;;;8.85;7.85;;;29.50;1.00;;;;;;8267182;28;20191;-66
2023/06/20 14:43:05;;;;;;;14.43;7.78;;;29.70;1.00;;;;;;8269874;28;20180;-66
2023/06/20 14:47:08;;;;;;;10.00;8.13;;;29.80;1.00;;;;;;8270149;28;20239;-67
2023/06/20 14:51:09;;;;;;;11.38;8.65;;;29.90;1.00;;;;;;8266780;28;20192;-68
2023/06/20 14:55:12;;;;;;;11.60;8.52;;;29.70;1.00;;;;;;8267871;28;20223;-65
2023/06/20 14:59:16;;;;;;;9.50;8.52;;;29.50;1.00;;;;;;8267573;28;20184;-66
2023/06/20 15:03:17;;;;;;;9.02;8.23;;;29.30;1.00;;;;;;8268161;28;20213;-66
2023/06/20 15:07:18;;;;;;;8.45;7.65;;;29.20;1.00;;;;;;8269965;28;20192;-66
2023/06/20 15:11:19;;;;;;;8.70;7.90;;;29.10;1.00;;;;;;8273784;28;20195;-68
2023/06/20 15:15:20;;;;;;;8.88;7.97;;;29.20;1.00;;;;;;8273607;28;20221;-68
2023/06/20 15:19:21;;;;;;;15.38;8.98;;;29.30;1.00;;;;;;8268255;28;20254;-68
2023/06/20 15:23:22;;;;;;;9.85;8.85;;;29.50;1.00;;;;;;8273708;28;20242;-68
2023/06/20 15:27:22;;;;;;;9.73;8.77;;;29.80;1.00;;;;;;8269988;28;20183;-68
2023/06/20 15:31:23;;;;;;;13.93;11.68;;;29.90;1.00;;;;;;8269328;28;20219;-69
2023/06/20 15:35:24;;;;;;;10.40;8.95;;;29.80;1.00;;;;;;8268482;28;20297;-68
2023/06/20 15:39:25;;;;;;;9.43;8.52;;;29.70;1.00;;;;;;8268474;28;20179;-68
2023/06/20 15:43:26;;;;;;;9.20;8.40;;;29.70;1.00;;;;;;8268353;28;20183;-68
2023/06/20 15:47:27;;;;;;;9.57;8.68;;;29.70;1.00;;;;;;8273545;28;20227;-69
2023/06/20 15:51:29;;;;;;;9.18;8.38;;;29.70;1.00;;;;;;8269006;28;20196;-69
2023/06/20 15:55:29;;;;;;;9.70;8.77;;;29.70;1.00;;;;;;8252354;28;20212;-70
2023/06/20 15:59:30;;;;;;;9.40;8.60;;;29.70;1.00;;;;;;8267163;28;20205;-69
2023/06/20 16:03:31;;;;;;;10.50;9.50;;;29.70;1.00;;;;;;8267726;28;20204;-68
2023/06/20 16:07:33;;;;;;;10.10;9.10;;;29.60;1.00;;;;;;8268304;28;20191;-69
2023/06/20 16:11:35;;;;;;;11.50;10.38;;;29.60;1.00;;;;;;8262902;28;20207;-69
2023/06/20 16:15:35;;;;;;;10.13;9.23;;;29.50;1.00;;;;;;8269360;28;20230;-70
2023/06/20 16:19:37;;;;;;;10.82;9.77;;;29.40;1.00;;;;;;8270234;28;20211;-68
2023/06/20 16:23:40;;;;;;;11.70;10.60;;;29.30;1.00;;;;;;8275701;28;20190;-69
2023/06/20 16:27:40;;;;;;;11.45;10.35;;;29.20;1.00;;;;;;8268376;28;20187;-68
2023/06/20 16:31:41;;;;;;;10.38;9.25;;;29.10;1.00;;;;;;8271988;28;20226;-68
2023/06/20 16:35:42;;;;;;;12.82;11.60;;;29.10;1.00;;;;;;8280689;28;20268;-69
2023/06/20 16:39:43;;;;;;;14.48;12.20;;;29.10;1.00;;;;;;8269334;28;20269;-69
2023/06/20 16:43:44;;;;;;;14.63;13.20;;;29.00;1.00;;;;;;8270945;28;20238;-67
2023/06/20 16:47:45;;;;;;;14.98;13.43;;;28.80;1.00;;;;;;8267355;28;20207;-69
2023/06/20 16:51:46;;;;;;;13.15;11.60;;;28.60;1.00;;;;;;8272672;28;20378;-68
2023/06/20 16:55:47;;;;;;;12.73;11.60;;;28.40;1.00;;;;;;8268983;28;20217;-68
2023/06/20 16:59:50;;;;;;;13.88;12.02;;;28.30;1.00;;;;;;8263949;28;20194;-69
2023/06/20 17:03:56;;;;;;;14.93;13.40;;;28.20;1.00;;;;;;8267781;28;20242;-69
2023/06/20 17:07:57;;;;;;;14.73;13.43;;;28.10;1.00;;;;;;8251298;28;20211;-69
2023/06/20 17:11:57;;;;;;;13.40;12.10;;;28.00;13.70;;;;;;8264542;28;20199;-68
2023/06/20 17:16:00;;;;;;;12.10;11.00;;;28.00;34.20;;;;;;8264684;28;20215;-68
2023/06/20 17:20:00;;;;;;;11.95;10.85;;;28.20;12.50;;;;;;8269417;28;20184;-69
2023/06/20 17:24:01;;;;;;;12.35;11.25;;;28.20;1.00;;;;;;8266895;28;20195;-69
2023/06/20 17:28:04;;;;;;;12.88;11.68;;;28.20;26.60;;;;;;8263701;28;20238;-69
2023/06/20 17:32:05;;;;;;;12.80;11.63;;;28.10;96.20;;;;;;8262841;28;20183;-69
2023/06/20 17:36:09;;;;;;;13.60;12.40;;;28.00;77.20;;;;;;8266389;28;20212;-68
2023/06/20 17:40:10;;;;;;;13.15;11.93;;;27.90;21.50;;;;;;8270904;28;20290;-68
2023/06/20 17:44:14;;;;;;;13.25;11.93;;;27.80;10.90;;;;;;8262448;28;20187;-67
2023/06/20 17:48:15;;;;;;;14.52;12.00;;;27.80;5.80;;;;;;8275185;28;20195;-74
2023/06/20 17:52:17;;;;;;;13.23;11.93;;;27.70;14.00;;;;;;8281087;28;20232;-72
2023/06/20 17:56:18;;;;;;;14.85;13.38;;;27.70;20.80;;;;;;8276827;28;20208;-73
2023/06/20 18:00:19;;;;;;;15.85;14.25;;;27.50;28.80;;;;;;8276713;28;20191;-73
2023/06/20 18:04:21;;;;;;;17.67;16.05;;;27.30;48.90;;;;;;8278724;28;20214;-73
2023/06/20 18:08:22;;;;;;;20.10;18.20;;;27.20;65.00;;;;;;8283309;28;20206;-74
2023/06/20 18:12:28;;;;;;;17.23;15.43;;;27.10;84.90;;;;;;8281411;28;20187;-73
2023/06/20 18:16:29;;;;;;;15.15;13.55;;;27.10;94.00;;;;;;8278985;28;20211;-74
2023/06/20 18:20:30;;;;;;;16.73;15.13;;;27.20;91.50;;;;;;8288798;28;20187;-73
2023/06/20 18:24:31;;;;;;;17.85;15.93;;;27.40;73.60;;;;;;8283806;28;20192;-74
2023/06/20 18:28:34;;;;;;;16.15;14.60;;;27.50;58.50;;;;;;8285215;28;20195;-73
2023/06/20 18:32:41;;;;;;;15.93;14.43;;;27.50;37.20;;;;;;8279745;28;20247;-75
2023/06/20 18:36:42;;;;;;;17.70;15.90;;;27.30;99.90;;;;;;8280759;28;20215;-73
2023/06/20 18:40:43;;;;;;;18.92;16.17;;;26.60;99.90;;;;;;8289517;28;20215;-73
2023/06/20 18:44:44;;;;;;;22.90;18.73;;;26.40;99.90;;;;;;8280688;28;20207;-73
2023/06/20 18:48:45;;;;;;;20.65;18.30;;;26.40;99.90;;;;;;8278313;28;20199;-73
2023/06/20 18:52:47;;;;;;;17.42;15.38;;;26.30;99.90;;;;;;8285524;28;20223;-74
2023/06/20 18:56:58;;;;;;;16.55;14.85;;;26.10;99.90;;;;;;8278249;28;20219;-74
2023/06/20 19:00:59;;;;;;;26.67;22.63;;;25.90;99.90;;;;;;8280666;28;20179;-74
2023/06/20 19:05:01;;;;;;;35.07;25.40;;;25.70;99.90;;;;;;8272023;28;20206;-73
2023/06/20 19:09:02;;;;;;;27.60;21.55;;;25.40;99.90;;;;;;8274726;28;20270;-74
2023/06/20 19:13:03;;;;;;;30.53;23.27;;;25.20;99.90;;;;;;8277306;28;20262;-73
2023/06/20 19:17:05;;;;;;;22.33;19.40;;;25.00;99.90;;;;;;8284281;28;20211;-73
2023/06/20 19:21:07;;;;;;;18.80;16.90;;;24.70;99.90;;;;;;8271654;28;20191;-71
2023/06/20 19:25:08;;;;;;;17.60;14.67;;;24.50;99.90;;;;;;8279169;28;20218;-71
2023/06/20 19:29:14;;;;;;;15.53;14.03;;;24.30;99.90;;;;;;8275381;28;20192;-70
2023/06/20 19:33:15;;;;;;;15.30;13.70;;;24.00;99.90;;;;;;8268851;28;20188;-70
2023/06/20 19:37:16;;;;;;;15.77;14.37;;;23.80;99.90;;;;;;8276650;28;20215;-72
2023/06/20 19:41:17;;;;;;;16.23;14.50;;;23.60;1.00;;;;;;8271388;28;20419;-72
2023/06/20 19:45:17;;;;;;;14.27;13.07;;;23.30;1.00;;;;;;8268738;28;20241;-72
2023/06/20 19:49:20;;;;;;;15.23;13.93;;;23.10;1.00;;;;;;8265522;28;20230;-72
2023/06/20 19:53:21;;;;;;;14.87;13.57;;;23.00;1.00;;;;;;8276689;28;20206;-71
2023/06/20 19:57:25;;;;;;;14.43;13.13;;;22.80;1.00;;;;;;8266796;28;20207;-70
2023/06/20 20:01:27;;;;;;;14.60;13.20;;;22.60;1.00;;;;;;8269909;28;20187;-71
2023/06/20 20:05:27;;;;;;;14.87;13.47;;;22.50;30.50;;;;;;8276983;28;20294;-71
2023/06/20 20:09:28;;;;;;;14.20;13.00;;;22.30;80.50;;;;;;8267781;28;20194;-69
2023/06/20 20:13:35;;;;;;;13.87;12.57;;;22.20;99.90;;;;;;8269961;28;20195;-71
2023/06/20 20:17:36;;;;;;;14.33;13.03;;;22.10;99.90;;;;;;8268145;28;20272;-71
2023/06/20 20:21:37;;;;;;;14.87;13.47;;;22.00;99.90;;;;;;8280484;28;20187;-71
2023/06/20 20:25:38;;;;;;;15.63;14.13;;;21.90;99.90;;;;;;8274703;28;20282;-71
2023/06/20 20:29:40;;;;;;;14.57;13.27;;;21.70;99.90;;;;;;8283734;28;20214;-70
2023/06/20 20:33:41;;;;;;;14.70;13.40;;;21.60;99.90;;;;;;8268941;28;20195;-69
2023/06/20 20:37:42;;;;;;;15.00;13.50;;;21.60;99.90;;;;;;8265288;28;20223;-69
2023/06/20 20:41:44;;;;;;;14.63;13.23;;;21.50;99.90;;;;;;8281986;28;20203;-71
2023/06/20 20:45:45;;;;;;;14.10;12.70;;;21.50;99.90;;;;;;8269748;28;20188;-70
2023/06/20 20:49:46;;;;;;;14.57;13.07;;;21.40;99.90;;;;;;8270766;28;20194;-70